Time;durP1;ratioP1;P1;durP2;ratioP2;P2;SDS_P1;SDS_P2;PMS_P1;PMS_P2;Temp;Humidity;BMP_temperature;BMP_pressure;BME280_temperature;BME280_humidity;BME280_pressure;Samples;Min_cycle;Max_cycle;Signal;HPM_P1;HPM_P2
2022/11/26 00:02:23;;;;;;;14.90;7.57;;;5.90;40.80;;;;;;5006399;28;20449;-75
2022/11/26 00:04:50;;;;;;;17.23;7.83;;;5.80;40.90;;;;;;5005650;28;20179;-73
2022/11/26 00:07:21;;;;;;;16.30;8.10;;;5.80;44.00;;;;;;5009934;28;20537;-75
2022/11/26 00:09:47;;;;;;;15.00;8.00;;;5.70;42.00;;;;;;5007117;28;20437;-73
2022/11/26 00:12:31;;;;;;;20.03;8.07;;;5.70;44.90;;;;;;5007559;28;20475;-73
2022/11/26 00:14:59;;;;;;;15.40;7.30;;;5.60;41.60;;;;;;5006872;28;20433;-73
2022/11/26 00:17:24;;;;;;;13.63;8.23;;;5.60;39.80;;;;;;5008086;28;20606;-73
2022/11/26 00:19:50;;;;;;;17.60;8.80;;;5.60;47.00;;;;;;5006566;28;20505;-72
2022/11/26 00:22:31;;;;;;;15.07;8.60;;;5.60;46.30;;;;;;5007089;28;20205;-73
2022/11/26 00:24:57;;;;;;;17.63;9.13;;;5.50;46.70;;;;;;5006625;28;20429;-73
2022/11/26 00:27:27;;;;;;;18.67;9.90;;;5.50;47.40;;;;;;5008510;28;20428;-73
2022/11/26 00:29:53;;;;;;;22.10;11.00;;;5.50;48.10;;;;;;5006700;28;20498;-73
2022/11/26 00:32:21;;;;;;;18.83;10.23;;;4.10;48.60;;;;;;5009407;28;20437;-73
2022/11/26 00:34:47;;;;;;;20.63;9.63;;;5.50;50.10;;;;;;5005984;28;20797;-73
2022/11/26 00:37:27;;;;;;;20.07;10.27;;;5.50;51.50;;;;;;5007623;28;20453;-73
2022/11/26 00:39:54;;;;;;;17.77;8.97;;;5.50;57.40;;;;;;5008243;28;20743;-73
2022/11/26 00:42:20;;;;;;;16.60;9.30;;;5.50;53.30;;;;;;5012326;28;20433;-74
2022/11/26 00:44:45;;;;;;;20.00;9.37;;;5.50;55.60;;;;;;5018794;28;20427;-73
2022/11/26 00:47:11;;;;;;;15.23;9.33;;;5.60;53.00;;;;;;5033571;28;20224;-72
2022/11/26 00:49:36;;;;;;;19.73;8.70;;;5.60;52.00;;;;;;5032457;28;20184;-73
2022/11/26 00:52:03;;;;;;;13.93;8.10;;;5.60;49.40;;;;;;5032058;28;20188;-72
2022/11/26 00:54:29;;;;;;;19.30;8.70;;;5.70;45.40;;;;;;5018966;28;20178;-73
2022/11/26 00:56:54;;;;;;;13.23;7.30;;;5.60;37.10;;;;;;5018297;28;20417;-74
2022/11/26 00:59:21;;;;;;;13.63;6.90;;;5.60;35.50;;;;;;5016606;28;20260;-73
2022/11/26 01:01:48;;;;;;;12.60;6.97;;;5.50;35.90;;;;;;5011829;28;20194;-73
2022/11/26 01:04:14;;;;;;;19.97;7.80;;;5.50;35.30;;;;;;5012188;28;20432;-74
2022/11/26 01:06:42;;;;;;;17.73;7.70;;;5.50;35.50;;;;;;5013290;28;20406;-73
2022/11/26 01:09:15;;;;;;;16.77;8.00;;;5.50;38.90;;;;;;5012626;28;20182;-73
2022/11/26 01:11:41;;;;;;;13.10;6.90;;;5.50;45.70;;;;;;5010921;28;20567;-73
2022/11/26 01:14:14;;;;;;;10.37;6.60;;;5.50;35.50;;;;;;5009726;28;20998;-73
2022/11/26 01:16:41;;;;;;;16.90;7.37;;;5.60;35.50;;;;;;5010054;28;20183;-73
2022/11/26 01:19:10;;;;;;;14.60;6.93;;;5.70;35.50;;;;;;5004043;28;20468;-73
2022/11/26 01:21:36;;;;;;;11.80;7.60;;;5.80;35.70;;;;;;5008957;28;20845;-73
2022/11/26 01:24:01;;;;;;;12.43;7.40;;;6.00;35.70;;;;;;5009061;28;20429;-72
2022/11/26 01:26:32;;;;;;;12.20;7.33;;;6.10;35.70;;;;;;5010404;28;20546;-73
2022/11/26 01:28:57;;;;;;;11.40;7.03;;;6.10;35.70;;;;;;5011801;28;20171;-73
2022/11/26 01:31:26;;;;;;;9.10;6.60;;;6.10;35.70;;;;;;5007120;28;20463;-74
2022/11/26 01:33:52;;;;;;;17.17;6.90;;;6.20;35.80;;;;;;5010985;28;20183;-73
2022/11/26 01:36:26;;;;;;;9.60;6.50;;;6.30;38.60;;;;;;5010431;28;20457;-73
2022/11/26 01:38:53;;;;;;;10.30;6.90;;;6.30;35.90;;;;;;5008909;28;20469;-72
2022/11/26 01:41:38;;;;;;;14.83;6.60;;;6.40;36.00;;;;;;5008575;28;20472;-73
2022/11/26 01:44:11;;;;;;;14.40;7.77;;;6.50;36.00;;;;;;5005750;28;20440;-73
2022/11/26 01:46:38;;;;;;;12.20;7.30;;;6.50;36.00;;;;;;5008208;28;20469;-72
2022/11/26 01:49:16;;;;;;;12.43;6.93;;;6.60;36.10;;;;;;5008113;28;21021;-73
2022/11/26 01:51:43;;;;;;;19.60;7.17;;;6.60;36.20;;;;;;5007538;28;20483;-73
2022/11/26 01:54:09;;;;;;;14.67;6.83;;;6.60;36.30;;;;;;5010993;28;20471;-73
2022/11/26 01:56:36;;;;;;;14.87;7.53;;;6.70;36.20;;;;;;5011319;28;21074;-73
2022/11/26 01:59:11;;;;;;;13.77;7.40;;;6.70;36.20;;;;;;4992216;28;20466;-73
2022/11/26 02:01:37;;;;;;;13.73;7.77;;;6.70;36.20;;;;;;5006725;28;20523;-72
2022/11/26 02:04:35;;;;;;;20.00;7.33;;;6.60;36.30;;;;;;5009157;28;20908;-74
2022/11/26 02:07:00;;;;;;;16.77;7.20;;;6.70;36.20;;;;;;5007753;28;20854;-75
2022/11/26 02:09:27;;;;;;;13.90;7.20;;;6.80;36.40;;;;;;5010120;28;20512;-73
2022/11/26 02:11:53;;;;;;;15.60;6.77;;;6.80;36.30;;;;;;5007446;28;20345;-74
2022/11/26 02:14:24;;;;;;;17.40;7.27;;;6.80;36.30;;;;;;5010013;28;21010;-73
2022/11/26 02:17:06;;;;;;;12.23;6.77;;;6.80;36.50;;;;;;5009661;28;20191;-72
2022/11/26 02:20:07;;;;;;;14.20;6.27;;;6.90;36.30;;;;;;5009917;28;20440;-73
2022/11/26 02:22:38;;;;;;;12.60;7.20;;;6.90;36.30;;;;;;5024465;23;20520;-70
2022/11/26 02:25:38;;;;;;;12.40;6.87;;;6.90;36.40;;;;;;4985207;28;20794;-70
2022/11/26 02:28:25;;;;;;;12.47;6.00;;;6.80;36.30;;;;;;5000783;28;20623;-71
2022/11/26 02:31:24;;;;;;;15.47;7.70;;;6.80;36.40;;;;;;4992948;28;20484;-71
2022/11/26 02:34:04;;;;;;;15.77;7.73;;;6.80;36.70;;;;;;4989689;28;20541;-70
2022/11/26 02:36:36;;;;;;;15.37;8.50;;;6.80;39.00;;;;;;4994875;28;20881;-71
2022/11/26 02:39:11;;;;;;;20.53;10.37;;;6.90;36.50;;;;;;4970539;28;20464;-69
2022/11/26 02:41:42;;;;;;;18.30;9.10;;;7.00;36.80;;;;;;4987526;28;20434;-70
2022/11/26 02:44:08;;;;;;;14.53;7.47;;;7.00;36.50;;;;;;4995927;28;20530;-70
2022/11/26 02:46:36;;;;;;;22.07;7.57;;;7.00;36.70;;;;;;5005163;28;20492;-71
2022/11/26 02:49:02;;;;;;;17.70;7.47;;;7.00;36.50;;;;;;4995315;28;20935;-70
2022/11/26 02:51:28;;;;;;;19.10;7.27;;;7.00;36.60;;;;;;4988318;28;20462;-70
2022/11/26 02:53:54;;;;;;;26.73;8.07;;;7.00;36.80;;;;;;4996370;28;20489;-70
2022/11/26 02:56:26;;;;;;;14.83;7.37;;;7.10;42.10;;;;;;4993628;28;20805;-70
2022/11/26 02:58:54;;;;;;;14.93;7.30;;;7.20;41.20;;;;;;4993970;28;20461;-70
2022/11/26 03:01:28;;;;;;;17.50;7.90;;;7.20;36.70;;;;;;4992685;28;20504;-70
2022/11/26 03:03:57;;;;;;;19.57;8.40;;;7.20;36.70;;;;;;4989122;28;20537;-70
2022/11/26 03:06:26;;;;;;;18.63;8.00;;;7.20;36.70;;;;;;5000759;28;20437;-70
2022/11/26 03:08:53;;;;;;;15.27;7.63;;;7.20;36.70;;;;;;4996150;28;20442;-70
2022/11/26 03:11:19;;;;;;;15.10;6.90;;;7.20;39.60;;;;;;5001139;28;20465;-70
2022/11/26 03:13:45;;;;;;;17.20;7.83;;;7.20;36.70;;;;;;4997947;28;20481;-70
2022/11/26 03:16:11;;;;;;;18.40;7.50;;;7.20;36.70;;;;;;4997719;28;20236;-70
2022/11/26 03:18:36;;;;;;;14.43;7.03;;;7.20;36.80;;;;;;4994285;28;20917;-69
2022/11/26 03:21:02;;;;;;;20.73;8.73;;;7.20;36.80;;;;;;4993784;28;20184;-69
2022/11/26 03:23:28;;;;;;;11.90;7.27;;;7.20;36.70;;;;;;4995193;28;20250;-70
2022/11/26 03:25:53;;;;;;;19.43;8.20;;;7.20;36.70;;;;;;4993231;28;20174;-70
2022/11/26 03:28:19;;;;;;;20.83;8.33;;;7.20;36.70;;;;;;4995982;28;20245;-68
2022/11/26 03:30:44;;;;;;;15.70;7.10;;;7.10;36.50;;;;;;4991183;28;20681;-70
2022/11/26 03:33:10;;;;;;;21.10;7.27;;;7.10;36.60;;;;;;5001280;28;20198;-70
2022/11/26 03:35:35;;;;;;;20.33;7.73;;;7.10;36.70;;;;;;4995627;28;20236;-70
2022/11/26 03:38:01;;;;;;;13.37;6.43;;;7.10;36.60;;;;;;4988536;28;20198;-70
2022/11/26 03:40:26;;;;;;;17.03;7.47;;;7.10;36.60;;;;;;4993694;28;20176;-70
2022/11/26 03:42:52;;;;;;;17.83;7.20;;;7.00;36.60;;;;;;4993858;28;20685;-70
2022/11/26 03:45:17;;;;;;;19.47;7.93;;;6.90;36.50;;;;;;5002609;28;20178;-70
2022/11/26 03:47:43;;;;;;;17.10;7.47;;;7.30;37.00;;;;;;4999504;28;20178;-73
2022/11/26 03:50:09;;;;;;;16.93;7.40;;;7.00;36.50;;;;;;4995599;28;20311;-71
2022/11/26 03:52:34;;;;;;;12.80;7.17;;;7.00;36.80;;;;;;4998715;28;20209;-70
2022/11/26 03:55:00;;;;;;;21.13;8.60;;;7.00;36.60;;;;;;4988368;28;20496;-70
2022/11/26 03:57:25;;;;;;;16.80;7.50;;;7.10;36.70;;;;;;5004902;28;20231;-70
2022/11/26 03:59:51;;;;;;;16.00;7.57;;;7.10;36.70;;;;;;5003218;28;20178;-69
2022/11/26 04:02:16;;;;;;;22.63;7.87;;;7.10;36.80;;;;;;4996779;28;20187;-70
2022/11/26 04:04:42;;;;;;;12.30;6.80;;;7.10;36.70;;;;;;4989931;28;20171;-68
2022/11/26 04:07:07;;;;;;;28.10;8.00;;;7.10;36.90;;;;;;4997038;28;20179;-70
2022/11/26 04:09:33;;;;;;;29.30;7.87;;;7.00;36.80;;;;;;4997559;28;20205;-71
2022/11/26 04:11:59;;;;;;;22.90;8.60;;;6.90;44.10;;;;;;4996081;28;20261;-70
2022/11/26 04:14:24;;;;;;;17.97;7.93;;;6.90;47.30;;;;;;4992456;28;20175;-70
2022/11/26 04:16:50;;;;;;;19.73;7.83;;;6.90;48.10;;;;;;4998190;28;20895;-69
2022/11/26 04:19:15;;;;;;;15.53;7.80;;;6.80;50.90;;;;;;4999867;28;20210;-70
2022/11/26 04:21:41;;;;;;;23.80;7.70;;;6.70;51.30;;;;;;4990287;28;20210;-70
2022/11/26 04:24:07;;;;;;;22.17;8.17;;;6.60;53.80;;;;;;4986473;28;20231;-70
2022/11/26 04:26:33;;;;;;;26.40;8.70;;;6.60;55.10;;;;;;4994586;28;20180;-70
2022/11/26 04:28:58;;;;;;;20.93;8.00;;;6.50;57.80;;;;;;5001579;28;20174;-70
2022/11/26 04:31:24;;;;;;;19.00;8.10;;;6.50;55.60;;;;;;5005358;28;20201;-70
2022/11/26 04:33:49;;;;;;;21.03;8.80;;;6.40;52.50;;;;;;4994933;28;20215;-69
2022/11/26 04:36:15;;;;;;;14.50;7.70;;;6.30;51.60;;;;;;4995343;28;20179;-71
2022/11/26 04:38:40;;;;;;;13.73;7.80;;;6.20;54.10;;;;;;4988626;28;20214;-69
2022/11/26 04:41:06;;;;;;;17.03;7.80;;;6.10;53.60;;;;;;5003970;28;20170;-69
2022/11/26 04:43:31;;;;;;;15.63;7.70;;;6.10;54.50;;;;;;4998649;28;20221;-70
2022/11/26 04:45:57;;;;;;;15.37;7.47;;;6.00;52.10;;;;;;5008840;28;20202;-70
2022/11/26 04:48:22;;;;;;;18.03;7.47;;;6.00;53.40;;;;;;4995410;28;20187;-69
2022/11/26 04:50:49;;;;;;;14.30;7.03;;;6.00;49.30;;;;;;4989093;28;20167;-70
2022/11/26 04:53:15;;;;;;;10.73;6.50;;;5.90;51.50;;;;;;4988269;28;20210;-68
2022/11/26 04:55:41;;;;;;;17.20;6.90;;;5.90;48.90;;;;;;4988187;28;20956;-69
2022/11/26 04:58:06;;;;;;;14.67;7.00;;;5.80;47.90;;;;;;4991468;28;20458;-70
2022/11/26 05:00:32;;;;;;;10.90;6.30;;;5.70;45.70;;;;;;4988853;28;20665;-70
2022/11/26 05:02:58;;;;;;;12.40;7.10;;;5.60;39.00;;;;;;4999226;28;20225;-70
2022/11/26 05:05:23;;;;;;;15.80;8.63;;;5.50;41.70;;;;;;5008527;28;20234;-70
2022/11/26 05:07:49;;;;;;;13.90;7.83;;;5.50;49.80;;;;;;4983162;28;20182;-70
2022/11/26 05:10:14;;;;;;;19.07;7.70;;;5.50;53.60;;;;;;4987332;28;20194;-70
2022/11/26 05:12:40;;;;;;;14.77;7.43;;;5.50;50.00;;;;;;4994533;28;20317;-70
2022/11/26 05:15:06;;;;;;;15.07;8.20;;;5.40;48.70;;;;;;4995798;28;20205;-70
2022/11/26 05:17:31;;;;;;;20.13;10.70;;;5.40;47.70;;;;;;4995372;28;20214;-70
2022/11/26 05:19:57;;;;;;;23.67;9.67;;;5.20;45.40;;;;;;4997640;28;20797;-70
2022/11/26 05:22:23;;;;;;;15.00;7.87;;;5.20;52.90;;;;;;4993054;28;20207;-70
2022/11/26 05:24:48;;;;;;;21.43;8.30;;;5.20;50.60;;;;;;4996855;28;20179;-70
2022/11/26 05:27:14;;;;;;;17.03;6.97;;;5.10;47.40;;;;;;4998851;28;20178;-70
2022/11/26 05:29:39;;;;;;;17.03;7.57;;;5.10;48.40;;;;;;4998859;28;20187;-69
2022/11/26 05:32:05;;;;;;;15.50;8.10;;;5.00;47.80;;;;;;4989974;28;20202;-69
2022/11/26 05:34:31;;;;;;;14.40;8.00;;;5.00;50.10;;;;;;4989424;28;20596;-70
2022/11/26 05:36:56;;;;;;;17.50;7.90;;;4.90;51.30;;;;;;5003394;28;20325;-71
2022/11/26 05:39:22;;;;;;;16.00;8.23;;;4.90;47.50;;;;;;4993638;28;20203;-69
2022/11/26 05:41:47;;;;;;;17.37;7.87;;;4.70;49.90;;;;;;4997800;28;20183;-69
2022/11/26 05:44:13;;;;;;;12.50;7.70;;;4.40;52.20;;;;;;4999180;28;20183;-69
2022/11/26 05:46:40;;;;;;;14.70;7.60;;;4.70;58.10;;;;;;5000522;28;20171;-70
2022/11/26 05:49:06;;;;;;;15.53;6.70;;;4.70;55.20;;;;;;4994314;28;20223;-69
2022/11/26 05:51:32;;;;;;;17.77;6.70;;;4.70;50.10;;;;;;4996256;28;20853;-69
2022/11/26 05:53:57;;;;;;;10.57;7.03;;;4.70;50.80;;;;;;4991514;28;20234;-70
2022/11/26 05:56:23;;;;;;;17.20;7.10;;;4.70;50.50;;;;;;4991254;28;20191;-69
2022/11/26 05:58:48;;;;;;;14.97;7.20;;;4.70;51.50;;;;;;4997037;28;20207;-69
2022/11/26 06:01:14;;;;;;;14.70;7.10;;;4.70;49.40;;;;;;4996459;28;20625;-70
2022/11/26 06:03:39;;;;;;;17.83;7.37;;;4.70;47.80;;;;;;5006679;28;20191;-69
2022/11/26 06:06:05;;;;;;;17.03;7.50;;;4.70;56.00;;;;;;4998048;28;20175;-69
2022/11/26 06:08:31;;;;;;;15.73;7.63;;;4.80;57.00;;;;;;4994476;28;20634;-68
2022/11/26 06:10:56;;;;;;;17.10;11.00;;;4.90;54.30;;;;;;5001815;28;20210;-68
2022/11/26 06:13:22;;;;;;;20.10;11.67;;;4.90;49.10;;;;;;4995564;28;20218;-68
2022/11/26 06:15:48;;;;;;;23.20;12.10;;;5.00;55.20;;;;;;4999650;28;20194;-68
2022/11/26 06:18:13;;;;;;;19.13;10.07;;;5.00;49.40;;;;;;4993849;28;20213;-68
2022/11/26 06:20:39;;;;;;;13.90;8.37;;;5.10;45.90;;;;;;4998084;28;20586;-69
2022/11/26 06:23:04;;;;;;;15.17;9.03;;;5.10;42.70;;;;;;4995353;28;20277;-69
2022/11/26 06:25:30;;;;;;;23.60;9.50;;;5.10;42.30;;;;;;4990082;28;20182;-69
2022/11/26 06:27:56;;;;;;;14.10;8.83;;;5.10;38.70;;;;;;5000971;28;20213;-69
2022/11/26 06:30:21;;;;;;;19.87;9.23;;;5.00;47.10;;;;;;4992867;28;20217;-70
2022/11/26 06:32:47;;;;;;;16.00;9.17;;;5.10;44.50;;;;;;4988351;28;20206;-69
2022/11/26 06:35:13;;;;;;;13.80;8.80;;;5.10;45.80;;;;;;4994809;28;20182;-69
2022/11/26 06:37:39;;;;;;;19.57;9.53;;;5.20;40.60;;;;;;4999876;28;20203;-68
2022/11/26 06:40:05;;;;;;;14.73;8.73;;;5.30;35.40;;;;;;4995013;28;20373;-69
2022/11/26 06:42:31;;;;;;;17.90;9.03;;;5.30;35.30;;;;;;4989816;28;20207;-69
2022/11/26 06:44:56;;;;;;;19.27;9.13;;;5.30;41.10;;;;;;4999810;28;20547;-69
2022/11/26 06:47:22;;;;;;;15.60;9.70;;;5.30;39.30;;;;;;4993321;28;20321;-70
2022/11/26 06:49:47;;;;;;;16.60;9.00;;;5.40;44.20;;;;;;5004155;28;20186;-70
2022/11/26 06:52:13;;;;;;;14.80;9.23;;;5.50;43.80;;;;;;5000778;28;20205;-70
2022/11/26 06:54:39;;;;;;;15.60;9.30;;;5.60;38.30;;;;;;4991191;28;20202;-69
2022/11/26 06:57:04;;;;;;;18.13;9.77;;;5.70;35.50;;;;;;5002069;28;20175;-70
2022/11/26 06:59:30;;;;;;;20.20;9.07;;;5.70;35.50;;;;;;5003199;28;20175;-69
2022/11/26 07:01:55;;;;;;;25.23;12.43;;;5.80;33.40;;;;;;4988594;28;20182;-70
2022/11/26 07:04:21;;;;;;;17.97;10.20;;;5.80;35.50;;;;;;4991875;28;20182;-69
2022/11/26 07:06:47;;;;;;;16.17;10.37;;;5.90;35.60;;;;;;4986177;28;20655;-69
2022/11/26 07:09:12;;;;;;;24.47;14.23;;;5.90;35.70;;;;;;4994456;28;20265;-69
2022/11/26 07:11:38;;;;;;;21.43;10.63;;;6.00;35.80;;;;;;4995860;28;20178;-69
2022/11/26 07:14:05;;;;;;;30.27;13.47;;;6.10;46.60;;;;;;4995237;28;20628;-68
2022/11/26 07:16:30;;;;;;;23.60;11.53;;;6.30;42.80;;;;;;5002089;28;20455;-70
2022/11/26 07:18:57;;;;;;;24.33;12.17;;;6.30;43.40;;;;;;5002543;28;20839;-71
2022/11/26 07:21:23;;;;;;;31.97;14.60;;;6.40;44.40;;;;;;4999882;28;20182;-69
2022/11/26 07:23:50;;;;;;;29.93;11.83;;;6.50;45.10;;;;;;5000207;28;20477;-68
2022/11/26 07:26:18;;;;;;;31.07;11.43;;;6.70;39.40;;;;;;4994959;28;20462;-69
2022/11/26 07:28:46;;;;;;;19.37;10.57;;;6.80;36.50;;;;;;4997269;28;20430;-70
2022/11/26 07:31:18;;;;;;;18.63;10.90;;;6.80;36.50;;;;;;4994403;28;20798;-69
2022/11/26 07:33:45;;;;;;;23.47;11.27;;;6.90;36.40;;;;;;4989269;28;20794;-70
2022/11/26 07:36:15;;;;;;;27.13;12.80;;;6.90;36.50;;;;;;4993958;28;20430;-70
2022/11/26 07:38:40;;;;;;;21.53;9.40;;;6.90;36.50;;;;;;4996812;28;20508;-69
2022/11/26 07:41:08;;;;;;;23.07;12.00;;;7.00;36.50;;;;;;4998288;28;20595;-69
2022/11/26 07:43:38;;;;;;;21.47;14.03;;;6.90;36.40;;;;;;4993551;28;20234;-69
2022/11/26 07:46:06;;;;;;;28.63;15.20;;;6.90;36.40;;;;;;4988984;28;20416;-69
2022/11/26 07:48:32;;;;;;;38.93;16.97;;;7.00;36.50;;;;;;5009458;28;20781;-70
2022/11/26 07:50:59;;;;;;;29.10;16.03;;;7.10;39.20;;;;;;4992099;28;20489;-69
2022/11/26 07:53:33;;;;;;;34.67;15.67;;;7.10;36.50;;;;;;4988132;28;20462;-70
2022/11/26 07:56:02;;;;;;;27.50;11.60;;;7.20;36.60;;;;;;4983396;28;20998;-70
2022/11/26 07:58:28;;;;;;;19.20;10.40;;;7.30;36.90;;;;;;4989450;28;20457;-70
2022/11/26 08:00:53;;;;;;;22.40;12.23;;;7.40;36.90;;;;;;4991412;28;20430;-68
2022/11/26 08:03:18;;;;;;;21.00;12.20;;;7.70;37.00;;;;;;5006891;28;20190;-69
2022/11/26 08:05:44;;;;;;;22.20;11.40;;;7.80;37.00;;;;;;4995907;28;20558;-69
2022/11/26 08:08:10;;;;;;;24.60;12.60;;;7.90;37.10;;;;;;4986418;28;20449;-70
2022/11/26 08:10:37;;;;;;;23.65;9.68;;;7.90;37.00;;;;;;4980875;28;20432;-69
2022/11/26 08:13:02;;;;;;;13.10;9.13;;;8.00;31.30;;;;;;4986258;28;20194;-69
2022/11/26 08:15:28;;;;;;;25.43;10.33;;;8.00;30.00;;;;;;4993960;28;20789;-67
2022/11/26 08:17:55;;;;;;;20.50;9.37;;;8.00;33.40;;;;;;5000105;28;20194;-67
2022/11/26 08:20:21;;;;;;;19.47;9.13;;;8.00;34.50;;;;;;4994230;28;20238;-69
2022/11/26 08:22:47;;;;;;;15.90;8.37;;;8.10;31.70;;;;;;4990491;28;20912;-69
2022/11/26 08:25:12;;;;;;;18.87;8.93;;;8.10;30.00;;;;;;4981175;28;20514;-72
2022/11/26 08:27:38;;;;;;;22.90;9.50;;;8.10;34.20;;;;;;4992176;28;20262;-69
2022/11/26 08:30:04;;;;;;;21.57;8.87;;;8.20;37.20;;;;;;5000457;28;20177;-70
2022/11/26 08:32:30;;;;;;;21.67;8.93;;;8.20;37.30;;;;;;4985059;28;20207;-69
2022/11/26 08:34:55;;;;;;;28.37;9.70;;;8.30;37.40;;;;;;4999744;28;20432;-70
2022/11/26 08:37:21;;;;;;;18.83;9.00;;;8.50;34.70;;;;;;4993968;28;20182;-69
2022/11/26 08:39:46;;;;;;;22.87;9.57;;;8.60;27.90;;;;;;4991301;28;20189;-68
2022/11/26 08:42:12;;;;;;;20.30;9.57;;;8.70;25.30;;;;;;4996195;28;20214;-70
2022/11/26 08:44:37;;;;;;;18.70;9.40;;;8.80;23.40;;;;;;4989852;28;20807;-70
2022/11/26 08:47:03;;;;;;;28.90;8.87;;;8.90;23.40;;;;;;4996102;28;20426;-72
2022/11/26 08:49:28;;;;;;;18.77;8.17;;;9.10;18.10;;;;;;4988144;28;20179;-70
2022/11/26 08:51:55;;;;;;;19.30;8.20;;;9.20;10.40;;;;;;4997887;28;20713;-71
2022/11/26 08:54:21;;;;;;;15.30;8.03;;;9.20;12.90;;;;;;5001662;28;20186;-70
2022/11/26 08:56:47;;;;;;;17.23;7.43;;;9.30;12.90;;;;;;4987811;28;20434;-71
2022/11/26 08:59:12;;;;;;;15.80;7.57;;;9.50;13.20;;;;;;4995693;28;20799;-69
2022/11/26 09:01:38;;;;;;;20.50;8.40;;;9.70;7.90;;;;;;4993100;28;20690;-69
2022/11/26 09:04:04;;;;;;;19.97;8.27;;;9.90;6.00;;;;;;5002466;28;20201;-68
2022/11/26 09:06:31;;;;;;;20.10;8.20;;;10.20;1.00;;;;;;4997461;28;20262;-68
2022/11/26 09:09:14;;;;;;;17.97;7.70;;;10.50;1.00;;;;;;5001680;28;20426;-68
2022/11/26 09:11:43;;;;;;;18.60;8.10;;;10.80;1.00;;;;;;5004693;28;20560;-70
2022/11/26 09:14:09;;;;;;;22.83;8.83;;;11.50;1.00;;;;;;4992092;28;20430;-69
2022/11/26 09:16:35;;;;;;;25.60;8.10;;;12.60;1.00;;;;;;4990455;28;20414;-70
2022/11/26 09:19:02;;;;;;;23.07;8.03;;;12.90;1.00;;;;;;4992480;28;20468;-69
2022/11/26 09:21:28;;;;;;;26.40;7.97;;;;;;;;;;5005953;28;20159;-74
2022/11/26 09:23:55;;;;;;;20.90;8.27;;;12.90;1.00;;;;;;4987784;28;20993;-74
2022/11/26 09:26:21;;;;;;;14.77;7.67;;;12.70;1.00;;;;;;4999503;28;20457;-72
2022/11/26 09:28:47;;;;;;;14.33;7.90;;;12.70;1.00;;;;;;5007992;28;20430;-73
2022/11/26 09:31:13;;;;;;;15.40;7.90;;;12.40;1.00;;;;;;5004365;28;20422;-68
2022/11/26 09:33:39;;;;;;;15.17;8.03;;;12.00;1.00;;;;;;4999733;28;20438;-69
2022/11/26 09:36:11;;;;;;;16.30;7.77;;;11.70;1.00;;;;;;4991730;28;20430;-69
2022/11/26 09:38:37;;;;;;;15.93;8.37;;;11.70;1.00;;;;;;4990320;28;20830;-69
2022/11/26 09:41:17;;;;;;;23.03;8.83;;;11.50;1.00;;;;;;4992327;28;20956;-68
2022/11/26 09:43:46;;;;;;;34.03;13.47;;;11.60;1.00;;;;;;4991615;28;20222;-69
2022/11/26 09:46:16;;;;;;;22.43;8.10;;;11.40;1.00;;;;;;4993207;28;20816;-68
2022/11/26 09:48:42;;;;;;;21.77;8.30;;;11.30;1.00;;;;;;4992563;28;20429;-68
2022/11/26 09:51:12;;;;;;;18.50;9.03;;;11.00;1.00;;;;;;4992553;28;20846;-69
2022/11/26 09:53:43;;;;;;;19.03;9.00;;;10.90;1.00;;;;;;4990910;28;20450;-69
2022/11/26 09:56:16;;;;;;;26.77;9.27;;;10.90;1.00;;;;;;4992203;28;20792;-68
2022/11/26 09:58:45;;;;;;;20.10;8.70;;;10.90;1.00;;;;;;4992184;28;20972;-68
2022/11/26 10:01:17;;;;;;;19.83;8.87;;;10.60;1.00;;;;;;4996808;28;20414;-68
2022/11/26 10:03:42;;;;;;;20.10;7.30;;;10.40;1.00;;;;;;4992313;28;20457;-69
2022/11/26 10:06:23;;;;;;;17.90;7.67;;;10.30;1.00;;;;;;5011922;28;20418;-68
2022/11/26 10:09:16;;;;;;;15.27;7.97;;;9.90;1.00;;;;;;4987649;28;20237;-69
2022/11/26 10:12:07;;;;;;;19.43;7.83;;;10.20;1.00;;;;;;4997940;28;20937;-69
2022/11/26 10:14:38;;;;;;;16.73;8.20;;;10.10;1.00;;;;;;4994510;28;20965;-70
2022/11/26 10:17:23;;;;;;;23.93;9.10;;;10.10;1.00;;;;;;4992231;28;20541;-69
2022/11/26 10:20:16;;;;;;;21.30;7.57;;;10.10;1.00;;;;;;4991726;28;20437;-69
2022/11/26 10:22:54;;;;;;;19.00;8.50;;;9.90;1.00;;;;;;4991712;28;20797;-69
2022/11/26 10:25:25;;;;;;;15.03;7.43;;;10.00;1.00;;;;;;4990828;28;20414;-68
2022/11/26 10:27:54;;;;;;;18.60;7.70;;;10.00;1.00;;;;;;4992207;28;20429;-69
2022/11/26 10:30:25;;;;;;;17.30;8.10;;;10.00;1.00;;;;;;4991452;28;20889;-68
2022/11/26 10:32:52;;;;;;;15.20;7.50;;;10.20;1.00;;;;;;4998250;28;20602;-68
2022/11/26 10:35:20;;;;;;;14.13;7.50;;;10.10;1.00;;;;;;4997850;28;20415;-70
2022/11/26 10:37:46;;;;;;;20.20;8.13;;;9.90;1.00;;;;;;4988082;28;20462;-68
2022/11/26 10:40:30;;;;;;;16.57;7.97;;;9.60;1.00;;;;;;4989133;28;20421;-68
2022/11/26 10:43:02;;;;;;;17.77;7.17;;;9.30;1.00;;;;;;4990387;28;20434;-70
2022/11/26 10:45:42;;;;;;;19.90;7.70;;;9.30;1.00;;;;;;4986879;28;20447;-68
2022/11/26 10:48:28;;;;;;;14.63;6.87;;;9.30;1.00;;;;;;4984179;28;20570;-68
2022/11/26 10:51:10;;;;;;;18.55;8.50;;;9.30;1.00;;;;;;4989590;28;20448;-68
2022/11/26 10:54:03;;;;;;;18.87;7.90;;;9.30;1.00;;;;;;4990348;28;20225;-69
2022/11/26 10:56:45;;;;;;;15.07;7.33;;;9.30;1.00;;;;;;4987348;28;20522;-68
2022/11/26 10:59:24;;;;;;;13.83;7.73;;;9.30;1.00;;;;;;4990874;28;20560;-70
2022/11/26 11:01:50;;;;;;;16.00;7.43;;;9.40;1.00;;;;;;4991136;28;20460;-70
2022/11/26 11:04:29;;;;;;;15.47;7.77;;;9.30;1.00;;;;;;5004994;28;20501;-69
2022/11/26 11:06:56;;;;;;;21.37;8.10;;;9.40;1.00;;;;;;5009573;28;20472;-69
2022/11/26 11:09:36;;;;;;;15.90;6.97;;;9.50;1.00;;;;;;5009768;28;20451;-69
2022/11/26 11:12:10;;;;;;;15.00;7.30;;;9.40;1.00;;;;;;4971235;28;20502;-70
2022/11/26 11:14:39;;;;;;;16.00;6.33;;;9.40;1.00;;;;;;4988792;28;20418;-68
2022/11/26 11:17:04;;;;;;;22.60;11.20;;;9.40;1.00;;;;;;4991175;28;20460;-70
2022/11/26 11:19:30;;;;;;;18.60;9.07;;;9.20;1.00;;;;;;4990699;28;20481;-69
2022/11/26 11:21:56;;;;;;;20.23;6.93;;;9.30;1.00;;;;;;4988719;28;20183;-70
2022/11/26 11:24:26;;;;;;;13.27;7.70;;;9.30;1.00;;;;;;4989247;28;20424;-70
2022/11/26 11:26:57;;;;;;;14.03;6.80;;;9.40;1.00;;;;;;4988772;28;20439;-69
2022/11/26 11:29:28;;;;;;;12.17;7.37;;;9.50;1.00;;;;;;4989792;28;20488;-70
2022/11/26 11:31:55;;;;;;;16.73;7.73;;;9.20;1.00;;;;;;4999183;28;20418;-68
2022/11/26 11:34:37;;;;;;;14.03;7.50;;;9.20;1.00;;;;;;5008195;28;20413;-68
2022/11/26 11:37:12;;;;;;;15.77;6.63;;;9.20;1.00;;;;;;5010614;28;20904;-68
2022/11/26 11:39:38;;;;;;;16.27;7.23;;;9.20;1.00;;;;;;4996395;28;20461;-69
2022/11/26 11:42:15;;;;;;;14.00;6.17;;;9.20;1.00;;;;;;5004909;28;20429;-69
2022/11/26 11:44:48;;;;;;;15.80;6.70;;;9.20;1.00;;;;;;4998764;28;20187;-68
2022/11/26 11:47:27;;;;;;;11.97;6.50;;;9.20;1.00;;;;;;4990734;28;20482;-71
2022/11/26 11:50:15;;;;;;;15.40;6.43;;;9.20;1.00;;;;;;4990530;28;20410;-68
2022/11/26 11:53:25;;;;;;;16.00;6.67;;;9.20;1.00;;;;;;4989541;28;20523;-69
2022/11/26 11:56:08;;;;;;;12.00;7.00;;;9.10;1.00;;;;;;4990604;28;20410;-69
2022/11/26 11:58:49;;;;;;;12.97;6.33;;;9.20;1.00;;;;;;4988738;28;20460;-69
2022/11/26 12:01:44;;;;;;;11.80;6.50;;;9.20;1.00;;;;;;4985068;28;20418;-68
2022/11/26 12:04:28;;;;;;;21.83;6.87;;;9.30;1.00;;;;;;4994245;28;20446;-69
2022/11/26 12:07:25;;;;;;;12.80;6.07;;;9.40;1.00;;;;;;4985524;28;20597;-68
2022/11/26 12:10:03;;;;;;;17.87;6.43;;;9.70;1.00;;;;;;4986477;28;20427;-68
2022/11/26 12:12:37;;;;;;;13.63;6.77;;;9.70;1.00;;;;;;4988916;28;20426;-69
2022/11/26 12:15:05;;;;;;;11.30;5.90;;;9.80;1.00;;;;;;4990583;28;20415;-69
2022/11/26 12:17:46;;;;;;;14.50;6.30;;;9.90;1.00;;;;;;5003289;28;20441;-69
2022/11/26 12:20:21;;;;;;;14.63;7.40;;;9.90;1.00;;;;;;4987814;28;20980;-69
2022/11/26 12:23:17;;;;;;;16.53;8.83;;;10.00;1.00;;;;;;4989272;28;20845;-69
2022/11/26 12:25:48;;;;;;;16.80;8.07;;;10.00;1.00;;;;;;4989944;28;20743;-70
2022/11/26 12:28:24;;;;;;;18.50;8.80;;;10.00;1.00;;;;;;4990052;28;20407;-69
2022/11/26 12:30:55;;;;;;;14.90;6.50;;;10.00;1.00;;;;;;4991975;28;20432;-70
2022/11/26 12:33:42;;;;;;;14.47;7.80;;;9.90;1.00;;;;;;4997704;28;20859;-70
2022/11/26 12:36:22;;;;;;;16.17;8.70;;;9.90;1.00;;;;;;4992784;28;20932;-70
2022/11/26 12:38:58;;;;;;;18.83;7.80;;;10.10;1.00;;;;;;4992575;28;20476;-70
2022/11/26 12:41:31;;;;;;;29.37;14.27;;;10.20;1.00;;;;;;4991820;28;20448;-69
2022/11/26 12:44:22;;;;;;;22.13;10.10;;;10.30;1.00;;;;;;4990702;28;20453;-69
2022/11/26 12:47:25;;;;;;;15.67;7.90;;;10.50;1.00;;;;;;4992549;28;20411;-69
2022/11/26 12:50:01;;;;;;;14.87;7.23;;;10.60;1.00;;;;;;4993159;28;20956;-70
2022/11/26 12:52:46;;;;;;;15.70;7.10;;;10.80;1.00;;;;;;4992598;28;20445;-70
2022/11/26 12:55:19;;;;;;;13.50;7.00;;;10.90;1.00;;;;;;4993639;28;20402;-69
2022/11/26 12:57:51;;;;;;;10.20;6.47;;;10.90;1.00;;;;;;4997423;28;20461;-69
2022/11/26 13:00:25;;;;;;;12.57;5.80;;;11.00;1.00;;;;;;4996839;28;20445;-69
2022/11/26 13:02:51;;;;;;;15.83;6.00;;;10.90;1.00;;;;;;4999405;28;20514;-69